createdAt,value
2023-03-31T00:00:07.762Z,7.32
2023-03-31T00:00:19.434Z,7.32
2023-03-31T00:00:31.830Z,7.30
2023-03-31T00:00:43.536Z,7.30
2023-03-31T00:00:55.249Z,7.30
2023-03-31T00:01:06.986Z,7.29
2023-03-31T00:01:17.700Z,7.29
2023-03-31T00:01:28.448Z,7.27
2023-03-31T00:01:40.663Z,7.26
2023-03-31T00:01:51.379Z,7.26
2023-03-31T00:02:04.070Z,7.26
2023-03-31T00:02:15.792Z,7.26
2023-03-31T00:02:28.280Z,7.24
2023-03-31T00:02:40.310Z,7.23
2023-03-31T00:02:51.120Z,7.24
2023-03-31T00:03:03.121Z,7.23
2023-03-31T00:03:14.060Z,7.21
2023-03-31T00:03:25.160Z,7.23
2023-03-31T00:03:36.245Z,7.21
2023-03-31T00:03:47.201Z,7.21
2023-03-31T00:03:58.307Z,7.21
2023-03-31T00:04:10.931Z,7.21
2023-03-31T00:04:21.634Z,7.21
2023-03-31T00:04:34.151Z,7.19
2023-03-31T00:04:46.874Z,7.19
2023-03-31T00:04:59.123Z,7.21
2023-03-31T00:05:12.301Z,7.21
2023-03-31T00:05:24.011Z,7.18
2023-03-31T00:05:35.793Z,7.21
2023-03-31T00:05:48.006Z,7.21
2023-03-31T00:06:00.452Z,7.19
2023-03-31T00:06:12.227Z,7.19
2023-03-31T00:06:23.922Z,7.21
2023-03-31T00:06:35.437Z,7.19
2023-03-31T00:06:47.380Z,7.21
2023-03-31T00:06:59.118Z,7.23
2023-03-31T00:07:11.308Z,7.23
2023-03-31T00:07:23.063Z,7.21
2023-03-31T00:07:35.354Z,7.23
2023-03-31T00:07:48.543Z,7.21
2023-03-31T00:07:59.291Z,7.23
2023-03-31T00:08:10.980Z,7.26
2023-03-31T00:08:23.423Z,7.26
2023-03-31T00:08:34.258Z,7.29
2023-03-31T00:08:47.197Z,7.27
2023-03-31T00:08:57.916Z,7.29
2023-03-31T00:09:11.399Z,7.32
2023-03-31T00:09:22.380Z,7.32
2023-03-31T00:09:33.098Z,7.34
2023-03-31T00:09:44.734Z,7.34
2023-03-31T00:10:06.876Z,7.36
2023-03-31T00:10:26.724Z,7.37
2023-03-31T00:10:37.500Z,7.39
2023-03-31T00:10:48.199Z,7.41
2023-03-31T00:10:58.899Z,7.41
2023-03-31T00:11:11.292Z,7.42
2023-03-31T00:11:22.057Z,7.44
2023-03-31T00:11:33.754Z,7.44
2023-03-31T00:11:44.454Z,7.44
2023-03-31T00:11:58.141Z,7.45
2023-03-31T00:12:08.893Z,7.45
2023-03-31T00:12:19.575Z,7.45
2023-03-31T00:12:31.754Z,7.48
2023-03-31T00:12:42.478Z,7.47
2023-03-31T00:12:53.261Z,7.48
2023-03-31T00:13:05.952Z,7.48
2023-03-31T00:13:17.621Z,7.50
2023-03-31T00:13:28.378Z,7.50
2023-03-31T00:13:39.096Z,7.51
2023-03-31T00:13:49.788Z,7.51
2023-03-31T00:14:02.961Z,7.51
2023-03-31T00:14:15.364Z,7.51
2023-03-31T00:14:26.062Z,7.54
2023-03-31T00:14:38.224Z,7.54
2023-03-31T00:14:48.924Z,7.54
2023-03-31T00:14:59.765Z,7.54
2023-03-31T00:15:10.460Z,7.52
2023-03-31T00:15:21.159Z,7.54
2023-03-31T00:15:31.956Z,7.54
2023-03-31T00:15:42.717Z,7.54
2023-03-31T00:15:54.488Z,7.52
2023-03-31T00:16:06.337Z,7.52
2023-03-31T00:16:17.340Z,7.51
2023-03-31T00:16:28.105Z,7.52
2023-03-31T00:16:39.802Z,7.51
2023-03-31T00:16:50.651Z,7.51
2023-03-31T00:17:01.523Z,7.52
2023-03-31T00:17:14.748Z,7.51
2023-03-31T00:17:26.537Z,7.51
2023-03-31T00:17:37.300Z,7.50
2023-03-31T00:17:49.541Z,7.51
2023-03-31T00:18:00.688Z,7.50
2023-03-31T00:18:13.257Z,7.50
2023-03-31T00:18:23.942Z,7.48
2023-03-31T00:18:34.633Z,7.48
2023-03-31T00:18:45.376Z,7.48
2023-03-31T00:18:57.825Z,7.47
2023-03-31T00:19:08.571Z,7.48
2023-03-31T00:19:19.402Z,7.48
2023-03-31T00:19:30.115Z,7.47
2023-03-31T00:19:41.849Z,7.45
2023-03-31T00:19:53.518Z,7.45
2023-03-31T00:20:04.218Z,7.45
2023-03-31T00:20:15.908Z,7.44
2023-03-31T00:20:27.649Z,7.44
2023-03-31T00:20:38.402Z,7.42
2023-03-31T00:20:49.079Z,7.41
2023-03-31T00:21:02.444Z,7.42
2023-03-31T00:21:13.259Z,7.39
2023-03-31T00:21:23.936Z,7.39
2023-03-31T00:21:35.596Z,7.37
2023-03-31T00:21:47.308Z,7.37
2023-03-31T00:21:58.053Z,7.34
2023-03-31T00:22:08.736Z,7.33
2023-03-31T00:22:19.462Z,7.33
2023-03-31T00:22:30.191Z,7.32
2023-03-31T00:22:40.928Z,7.30
2023-03-31T00:22:51.631Z,7.32
2023-03-31T00:23:03.340Z,7.30
2023-03-31T00:23:14.024Z,7.27
2023-03-31T00:23:27.240Z,7.27
2023-03-31T00:23:37.918Z,7.27
2023-03-31T00:23:50.329Z,7.26
2023-03-31T00:24:01.074Z,7.26
2023-03-31T00:24:12.720Z,7.23
2023-03-31T00:24:24.481Z,7.24
2023-03-31T00:24:37.128Z,7.23
2023-03-31T00:24:47.882Z,7.24
2023-03-31T00:24:58.631Z,7.24
2023-03-31T00:25:09.333Z,7.23
2023-03-31T00:25:20.076Z,7.23
2023-03-31T00:25:30.813Z,7.23
2023-03-31T00:25:41.512Z,7.21
2023-03-31T00:25:53.875Z,7.21
2023-03-31T00:26:06.524Z,7.21
2023-03-31T00:26:20.949Z,7.21
2023-03-31T00:26:33.380Z,7.23
2023-03-31T00:26:45.048Z,7.21
2023-03-31T00:26:55.762Z,7.21
2023-03-31T00:27:06.524Z,7.21
2023-03-31T00:27:17.240Z,7.21
2023-03-31T00:27:30.434Z,7.21
2023-03-31T00:27:42.165Z,7.19
2023-03-31T00:27:52.911Z,7.19
2023-03-31T00:28:05.601Z,7.18
2023-03-31T00:28:17.244Z,7.19
2023-03-31T00:28:27.948Z,7.19
2023-03-31T00:28:38.637Z,7.18
2023-03-31T00:28:51.098Z,7.18
2023-03-31T00:29:01.783Z,7.19
2023-03-31T00:29:13.435Z,7.19
2023-03-31T00:29:24.129Z,7.19
2023-03-31T00:29:35.806Z,7.18
2023-03-31T00:29:47.512Z,7.19
2023-03-31T00:30:01.210Z,7.18
2023-03-31T00:30:13.392Z,7.18
2023-03-31T00:30:25.102Z,7.18
2023-03-31T00:30:35.793Z,7.18
2023-03-31T00:30:48.493Z,7.18
2023-03-31T00:30:59.190Z,7.18
2023-03-31T00:31:09.973Z,7.16
2023-03-31T00:31:21.669Z,7.18
2023-03-31T00:31:32.357Z,7.16
2023-03-31T00:31:43.087Z,7.19
2023-03-31T00:31:53.858Z,7.18
2023-03-31T00:32:05.522Z,7.16
2023-03-31T00:32:17.913Z,7.15
2023-03-31T00:32:28.663Z,7.14
2023-03-31T00:32:41.128Z,7.14
2023-03-31T00:32:53.349Z,7.12
2023-03-31T00:33:04.087Z,7.11
2023-03-31T00:33:14.754Z,7.11
2023-03-31T00:33:27.184Z,7.09
2023-03-31T00:33:40.861Z,7.09
2023-03-31T00:33:51.598Z,7.08
2023-03-31T00:34:03.296Z,7.07
2023-03-31T00:34:14.064Z,7.05
2023-03-31T00:34:26.420Z,7.04
2023-03-31T00:34:37.134Z,7.01
2023-03-31T00:34:47.837Z,7.01
2023-03-31T00:34:59.569Z,7.01
2023-03-31T00:35:10.255Z,7.00
2023-03-31T00:35:21.938Z,6.99
2023-03-31T00:35:32.679Z,6.97
2023-03-31T00:35:43.379Z,6.97
2023-03-31T00:35:54.115Z,6.97
2023-03-31T00:36:06.018Z,6.96
2023-03-31T00:36:17.068Z,6.96
2023-03-31T00:36:27.716Z,6.93
2023-03-31T00:36:38.419Z,6.91
2023-03-31T00:36:51.415Z,6.91
2023-03-31T00:37:04.124Z,6.91
2023-03-31T00:37:15.805Z,6.90
2023-03-31T00:37:28.788Z,6.89
2023-03-31T00:37:41.237Z,6.89
2023-03-31T00:37:53.426Z,6.89
2023-03-31T00:38:05.848Z,6.89
2023-03-31T00:38:18.143Z,6.87
2023-03-31T00:38:30.643Z,6.86
2023-03-31T00:38:41.320Z,6.83
2023-03-31T00:38:53.818Z,6.83
2023-03-31T00:39:04.513Z,6.82
2023-03-31T00:39:16.187Z,6.82
2023-03-31T00:39:26.950Z,6.82
2023-03-31T00:39:37.646Z,6.79
2023-03-31T00:39:48.363Z,6.79
2023-03-31T00:39:59.070Z,6.79
2023-03-31T00:40:09.936Z,6.78
2023-03-31T00:40:20.697Z,6.76
2023-03-31T00:40:31.391Z,6.75
2023-03-31T00:40:44.314Z,6.75
2023-03-31T00:40:55.054Z,6.75
2023-03-31T00:41:05.804Z,6.72
2023-03-31T00:41:16.516Z,6.72
2023-03-31T00:41:27.207Z,6.71
2023-03-31T00:41:37.937Z,6.71
2023-03-31T00:41:48.612Z,6.69
2023-03-31T00:41:59.303Z,6.69
2023-03-31T00:42:09.975Z,6.69
2023-03-31T00:42:21.686Z,6.69
2023-03-31T00:42:33.389Z,6.65
2023-03-31T00:42:44.056Z,6.65
2023-03-31T00:42:56.504Z,6.64
2023-03-31T00:43:08.184Z,6.65
2023-03-31T00:43:18.910Z,6.65
2023-03-31T00:43:29.625Z,6.64
2023-03-31T00:43:41.289Z,6.65
2023-03-31T00:43:52.010Z,6.64
2023-03-31T00:44:02.754Z,6.63
2023-03-31T00:44:13.495Z,6.63
2023-03-31T00:44:25.134Z,6.63
2023-03-31T00:44:37.599Z,6.61
2023-03-31T00:44:48.309Z,6.61
2023-03-31T00:44:59.078Z,6.60
2023-03-31T00:45:09.771Z,6.60
2023-03-31T00:45:22.967Z,6.58
2023-03-31T00:45:34.654Z,6.57
2023-03-31T00:45:45.385Z,6.58
2023-03-31T00:45:56.125Z,6.57
2023-03-31T00:46:07.103Z,6.57
2023-03-31T00:46:18.226Z,6.55
2023-03-31T00:46:30.612Z,6.55
2023-03-31T00:46:41.333Z,6.57
2023-03-31T00:46:53.008Z,6.57
2023-03-31T00:47:04.754Z,6.57
2023-03-31T00:47:16.438Z,6.57
2023-03-31T00:47:27.233Z,6.57
2023-03-31T00:47:39.624Z,6.57
2023-03-31T00:47:50.402Z,6.55
2023-03-31T00:48:03.601Z,6.55
2023-03-31T00:48:14.386Z,6.55
2023-03-31T00:48:26.548Z,6.54
2023-03-31T00:48:38.969Z,6.54
2023-03-31T00:48:51.899Z,6.54
2023-03-31T00:49:05.089Z,6.54
2023-03-31T00:49:18.267Z,6.55
2023-03-31T00:49:30.950Z,6.51
2023-03-31T00:49:43.410Z,6.53
2023-03-31T00:49:54.113Z,6.51
2023-03-31T00:50:04.861Z,6.51
2023-03-31T00:50:17.235Z,6.51
2023-03-31T00:50:27.933Z,6.50
2023-03-31T00:50:38.681Z,6.50
2023-03-31T00:50:50.857Z,6.48
2023-03-31T00:51:02.517Z,6.46
2023-03-31T00:51:14.673Z,6.48
2023-03-31T00:51:27.174Z,6.46
2023-03-31T00:51:37.907Z,6.46
2023-03-31T00:51:48.624Z,6.45
2023-03-31T00:52:00.313Z,6.45
2023-03-31T00:52:11.042Z,6.45
2023-03-31T00:52:21.830Z,6.43
2023-03-31T00:52:32.505Z,6.43
2023-03-31T00:52:43.192Z,6.43
2023-03-31T00:52:55.584Z,6.42
2023-03-31T00:53:06.299Z,6.43
2023-03-31T00:53:18.226Z,6.42
2023-03-31T00:53:29.916Z,6.40
2023-03-31T00:53:40.629Z,6.42
2023-03-31T00:53:52.309Z,6.39
2023-03-31T00:54:03.071Z,6.40
2023-03-31T00:54:13.761Z,6.39
2023-03-31T00:54:25.476Z,6.40
2023-03-31T00:54:36.192Z,6.39
2023-03-31T00:54:46.883Z,6.39
2023-03-31T00:54:59.282Z,6.38
2023-03-31T00:55:11.737Z,6.39
2023-03-31T00:55:22.494Z,6.39
2023-03-31T00:55:33.195Z,6.38
2023-03-31T00:55:43.943Z,6.38
2023-03-31T00:55:54.633Z,6.36
2023-03-31T00:56:05.546Z,6.36
2023-03-31T00:56:17.318Z,6.36
2023-03-31T00:56:28.004Z,6.35
2023-03-31T00:56:38.763Z,6.36
2023-03-31T00:56:51.195Z,6.35
2023-03-31T00:57:03.828Z,6.35
2023-03-31T00:57:17.561Z,6.33
2023-03-31T00:57:30.110Z,6.33
2023-03-31T00:57:44.333Z,6.35
2023-03-31T00:57:55.069Z,6.35
2023-03-31T00:58:08.261Z,6.36
2023-03-31T00:58:19.023Z,6.36
2023-03-31T00:58:30.738Z,6.38
2023-03-31T00:58:41.486Z,6.38
2023-03-31T00:58:52.180Z,6.38
2023-03-31T00:59:02.904Z,6.39
2023-03-31T00:59:13.628Z,6.39
2023-03-31T00:59:24.381Z,6.38
2023-03-31T00:59:35.140Z,6.39
2023-03-31T00:59:45.829Z,6.38
2023-03-31T00:59:56.530Z,6.39
2023-03-31T01:00:08.487Z,6.39
2023-03-31T01:00:19.305Z,6.40
2023-03-31T01:00:30.115Z,6.39
2023-03-31T01:00:40.800Z,6.40
2023-03-31T01:00:51.583Z,6.40
2023-03-31T01:01:02.391Z,6.42
2023-03-31T01:01:13.091Z,6.42
2023-03-31T01:01:23.922Z,6.42
2023-03-31T01:01:35.586Z,6.43
2023-03-31T01:01:46.495Z,6.43
2023-03-31T01:01:57.288Z,6.43
2023-03-31T01:02:08.031Z,6.45
2023-03-31T01:02:18.785Z,6.46
2023-03-31T01:02:29.555Z,6.45
2023-03-31T01:02:41.347Z,6.43
2023-03-31T01:02:52.424Z,6.45
2023-03-31T01:03:03.431Z,6.45
2023-03-31T01:03:14.205Z,6.43
2023-03-31T01:03:24.979Z,6.43
2023-03-31T01:03:36.742Z,6.45
2023-03-31T01:03:48.687Z,6.45
2023-03-31T01:04:00.369Z,6.43
2023-03-31T01:04:12.166Z,6.43
2023-03-31T01:04:23.823Z,6.45
2023-03-31T01:04:37.003Z,6.43
2023-03-31T01:04:47.749Z,6.45
2023-03-31T01:04:58.469Z,6.42
2023-03-31T01:05:09.242Z,6.45
2023-03-31T01:05:21.671Z,6.43
2023-03-31T01:05:33.367Z,6.43
2023-03-31T01:05:44.129Z,6.43
2023-03-31T01:05:54.911Z,6.43
2023-03-31T01:06:07.532Z,6.43
2023-03-31T01:06:20.906Z,6.42
2023-03-31T01:06:32.604Z,6.43
2023-03-31T01:06:44.781Z,6.42
2023-03-31T01:06:55.579Z,6.42
2023-03-31T01:07:06.279Z,6.40
2023-03-31T01:07:17.996Z,6.40
2023-03-31T01:07:28.693Z,6.40
2023-03-31T01:07:41.173Z,6.40
2023-03-31T01:07:53.335Z,6.40
2023-03-31T01:08:07.544Z,6.40
2023-03-31T01:08:18.283Z,6.39
2023-03-31T01:08:30.005Z,6.39
2023-03-31T01:08:40.753Z,6.38
2023-03-31T01:08:52.971Z,6.38
2023-03-31T01:09:03.696Z,6.38
2023-03-31T01:09:14.506Z,6.38
2023-03-31T01:09:25.227Z,6.36
2023-03-31T01:09:35.996Z,6.36
2023-03-31T01:09:47.697Z,6.35
2023-03-31T01:09:58.384Z,6.36
2023-03-31T01:10:11.589Z,6.33
2023-03-31T01:10:23.261Z,6.35
2023-03-31T01:10:35.668Z,6.32
2023-03-31T01:10:48.155Z,6.32
2023-03-31T01:11:01.319Z,6.30
2023-03-31T01:11:12.969Z,6.30
2023-03-31T01:11:24.728Z,6.28
2023-03-31T01:11:35.452Z,6.28
2023-03-31T01:11:46.149Z,6.28
2023-03-31T01:11:58.867Z,6.27
2023-03-31T01:12:09.626Z,6.25
2023-03-31T01:12:22.020Z,6.25
2023-03-31T01:12:32.715Z,6.24
2023-03-31T01:12:45.194Z,6.24
2023-03-31T01:12:57.825Z,6.24
2023-03-31T01:13:08.560Z,6.21
2023-03-31T01:13:19.295Z,6.21
2023-03-31T01:13:31.044Z,6.21
2023-03-31T01:13:41.748Z,6.20
2023-03-31T01:13:52.486Z,6.20
2023-03-31T01:14:05.194Z,6.20
2023-03-31T01:14:17.015Z,6.19
2023-03-31T01:14:29.464Z,6.19
2023-03-31T01:14:41.911Z,6.17
2023-03-31T01:14:54.875Z,6.17
2023-03-31T01:15:07.291Z,6.14
2023-03-31T01:15:18.056Z,6.14
2023-03-31T01:15:29.817Z,6.14
2023-03-31T01:15:40.610Z,6.14
2023-03-31T01:15:51.290Z,6.13
2023-03-31T01:16:04.792Z,6.13
2023-03-31T01:16:16.831Z,6.13
2023-03-31T01:16:29.197Z,6.10
2023-03-31T01:16:40.187Z,6.11
2023-03-31T01:16:52.026Z,6.11
2023-03-31T01:17:03.091Z,6.10
2023-03-31T01:17:14.897Z,6.08
2023-03-31T01:17:26.810Z,6.08
2023-03-31T01:17:37.897Z,6.06
2023-03-31T01:17:48.830Z,6.05
2023-03-31T01:18:02.195Z,6.06
2023-03-31T01:18:16.677Z,6.05
2023-03-31T01:18:29.438Z,6.05
2023-03-31T01:18:42.124Z,6.05
2023-03-31T01:18:54.833Z,6.05
2023-03-31T01:19:07.229Z,6.02
2023-03-31T01:19:19.702Z,6.02
2023-03-31T01:19:32.176Z,6.02
2023-03-31T01:19:42.932Z,6.01
2023-03-31T01:19:53.636Z,6.01
2023-03-31T01:20:04.362Z,6.01
2023-03-31T01:20:15.116Z,5.98
2023-03-31T01:20:25.785Z,5.99
2023-03-31T01:20:37.496Z,5.99
2023-03-31T01:20:48.236Z,5.99
2023-03-31T01:20:58.943Z,5.99
2023-03-31T01:21:10.653Z,5.98
2023-03-31T01:21:22.336Z,5.98
2023-03-31T01:21:34.086Z,5.98
2023-03-31T01:21:44.810Z,5.98
2023-03-31T01:21:55.591Z,5.96
2023-03-31T01:22:06.283Z,5.98
2023-03-31T01:22:17.034Z,5.98
2023-03-31T01:22:27.816Z,5.96
2023-03-31T01:22:39.547Z,5.98
2023-03-31T01:22:50.328Z,5.98
2023-03-31T01:23:01.028Z,5.98
2023-03-31T01:23:11.768Z,5.98
2023-03-31T01:23:22.472Z,5.98
2023-03-31T01:23:33.259Z,5.98
2023-03-31T01:23:43.948Z,5.99
2023-03-31T01:23:54.724Z,5.98
2023-03-31T01:24:05.418Z,5.99
2023-03-31T01:24:17.142Z,6.01
2023-03-31T01:24:30.389Z,6.01
2023-03-31T01:24:41.193Z,5.99
2023-03-31T01:24:54.939Z,6.01
2023-03-31T01:25:05.679Z,6.01
2023-03-31T01:25:18.102Z,6.02
2023-03-31T01:25:29.789Z,6.01
2023-03-31T01:25:40.708Z,6.02
2023-03-31T01:25:51.440Z,6.02
2023-03-31T01:26:04.422Z,6.02
2023-03-31T01:26:16.203Z,6.02
2023-03-31T01:26:26.952Z,6.03
2023-03-31T01:26:37.689Z,6.02
2023-03-31T01:26:50.796Z,6.03
2023-03-31T01:27:01.519Z,6.03
2023-03-31T01:27:13.945Z,6.05
2023-03-31T01:27:26.370Z,6.05
2023-03-31T01:27:38.042Z,6.06
2023-03-31T01:27:48.759Z,6.06
2023-03-31T01:27:59.541Z,6.06
2023-03-31T01:28:11.254Z,6.06
2023-03-31T01:28:23.396Z,6.08
2023-03-31T01:28:35.176Z,6.10
2023-03-31T01:28:45.830Z,6.11
2023-03-31T01:28:56.575Z,6.10
2023-03-31T01:29:07.293Z,6.11
2023-03-31T01:29:18.074Z,6.13
2023-03-31T01:29:28.786Z,6.11
2023-03-31T01:29:40.564Z,6.14
2023-03-31T01:29:51.332Z,6.14
2023-03-31T01:30:02.078Z,6.14
2023-03-31T01:30:16.258Z,6.16
2023-03-31T01:30:26.960Z,6.17
2023-03-31T01:30:37.714Z,6.17
2023-03-31T01:30:49.510Z,6.19
2023-03-31T01:31:00.315Z,6.17
2023-03-31T01:31:12.727Z,6.20
2023-03-31T01:31:25.205Z,6.20
2023-03-31T01:31:35.978Z,6.20
2023-03-31T01:31:47.779Z,6.21
2023-03-31T01:31:58.558Z,6.21
2023-03-31T01:32:10.998Z,6.24
2023-03-31T01:32:23.503Z,6.24
2023-03-31T01:32:34.252Z,6.25
2023-03-31T01:32:47.525Z,6.25
2023-03-31T01:32:58.278Z,6.25
2023-03-31T01:33:09.005Z,6.27
2023-03-31T01:33:21.401Z,6.27
2023-03-31T01:33:34.422Z,6.28
2023-03-31T01:33:46.074Z,6.28
2023-03-31T01:33:58.526Z,6.30
2023-03-31T01:34:11.481Z,6.30
2023-03-31T01:34:23.255Z,6.32
2023-03-31T01:34:33.987Z,6.33
2023-03-31T01:34:48.234Z,6.33
2023-03-31T01:35:01.973Z,6.33
2023-03-31T01:35:13.654Z,6.35
2023-03-31T01:35:24.479Z,6.35
2023-03-31T01:35:35.237Z,6.38
2023-03-31T01:35:47.755Z,6.38
2023-03-31T01:35:58.603Z,6.38
2023-03-31T01:36:10.820Z,6.39
2023-03-31T01:36:23.990Z,6.40
2023-03-31T01:36:34.702Z,6.42
2023-03-31T01:36:46.426Z,6.42
2023-03-31T01:36:57.198Z,6.45
2023-03-31T01:37:10.167Z,6.43
2023-03-31T01:37:20.899Z,6.45
2023-03-31T01:37:32.643Z,6.46
2023-03-31T01:37:44.355Z,6.48
2023-03-31T01:37:56.067Z,6.48
2023-03-31T01:38:06.786Z,6.48
2023-03-31T01:38:17.534Z,6.50
2023-03-31T01:38:29.249Z,6.50
2023-03-31T01:38:40.965Z,6.50
2023-03-31T01:38:51.773Z,6.50
2023-03-31T01:39:04.996Z,6.51
2023-03-31T01:39:17.450Z,6.51
2023-03-31T01:39:28.175Z,6.53
2023-03-31T01:39:41.146Z,6.53
2023-03-31T01:39:54.332Z,6.51
2023-03-31T01:40:05.101Z,6.53
2023-03-31T01:40:17.015Z,6.54
2023-03-31T01:40:29.439Z,6.53
2023-03-31T01:40:41.120Z,6.53
2023-03-31T01:40:51.848Z,6.54
2023-03-31T01:41:02.545Z,6.53
2023-03-31T01:41:13.244Z,6.53
2023-03-31T01:41:25.685Z,6.53
2023-03-31T01:41:36.392Z,6.53
2023-03-31T01:41:48.048Z,6.53
2023-03-31T01:41:58.742Z,6.53
2023-03-31T01:42:09.500Z,6.53
2023-03-31T01:42:20.275Z,6.51
2023-03-31T01:42:30.987Z,6.53
2023-03-31T01:42:43.169Z,6.53
2023-03-31T01:42:53.898Z,6.51
2023-03-31T01:43:05.858Z,6.51
2023-03-31T01:43:16.635Z,6.51
2023-03-31T01:43:28.286Z,6.50
2023-03-31T01:43:40.697Z,6.51
2023-03-31T01:43:51.456Z,6.50
2023-03-31T01:44:02.145Z,6.48
2023-03-31T01:44:12.854Z,6.48
2023-03-31T01:44:23.536Z,6.50
2023-03-31T01:44:34.264Z,6.48
2023-03-31T01:44:44.976Z,6.48
2023-03-31T01:44:55.719Z,6.46
2023-03-31T01:45:09.890Z,6.45
2023-03-31T01:45:20.603Z,6.46
2023-03-31T01:45:31.292Z,6.45
2023-03-31T01:45:42.995Z,6.42
2023-03-31T01:45:55.209Z,6.43
2023-03-31T01:46:07.178Z,6.42
2023-03-31T01:46:19.151Z,6.42
2023-03-31T01:46:29.828Z,6.42
2023-03-31T01:46:41.520Z,6.39
2023-03-31T01:46:52.317Z,6.40
2023-03-31T01:47:03.067Z,6.40
2023-03-31T01:47:13.790Z,6.39
2023-03-31T01:47:24.504Z,6.38
2023-03-31T01:47:35.242Z,6.38
2023-03-31T01:47:45.976Z,6.36
2023-03-31T01:47:56.717Z,6.36
2023-03-31T01:48:09.691Z,6.36
2023-03-31T01:48:20.425Z,6.35
2023-03-31T01:48:31.123Z,6.35
2023-03-31T01:48:41.816Z,6.35
2023-03-31T01:48:52.570Z,6.33
2023-03-31T01:49:05.013Z,6.32
2023-03-31T01:49:16.687Z,6.30
2023-03-31T01:49:27.381Z,6.32
2023-03-31T01:49:39.087Z,6.30
2023-03-31T01:49:49.832Z,6.30
2023-03-31T01:50:01.560Z,6.27
2023-03-31T01:50:13.515Z,6.28
2023-03-31T01:50:26.242Z,6.27
2023-03-31T01:50:36.968Z,6.27
2023-03-31T01:50:48.629Z,6.25
2023-03-31T01:50:59.333Z,6.25
2023-03-31T01:51:10.096Z,6.25
2023-03-31T01:51:21.787Z,6.24
2023-03-31T01:51:32.486Z,6.24
2023-03-31T01:51:44.171Z,6.21
2023-03-31T01:51:54.872Z,6.20
2023-03-31T01:52:06.871Z,6.20
2023-03-31T01:52:19.075Z,6.21
2023-03-31T01:52:29.887Z,6.21
2023-03-31T01:52:40.593Z,6.20
2023-03-31T01:52:52.331Z,6.20
2023-03-31T01:53:03.018Z,6.20
2023-03-31T01:53:13.737Z,6.17
2023-03-31T01:53:24.479Z,6.19
2023-03-31T01:53:35.198Z,6.19
2023-03-31T01:53:46.902Z,6.19
2023-03-31T01:53:59.326Z,6.19
2023-03-31T01:54:12.537Z,6.19
2023-03-31T01:54:25.018Z,6.17
2023-03-31T01:54:36.711Z,6.16
2023-03-31T01:54:47.391Z,6.17
2023-03-31T01:54:58.173Z,6.16
2023-03-31T01:55:10.403Z,6.17
2023-03-31T01:55:24.178Z,6.17
2023-03-31T01:55:37.897Z,6.17
2023-03-31T01:55:48.604Z,6.16
2023-03-31T01:56:01.069Z,6.16
2023-03-31T01:56:14.312Z,6.14
2023-03-31T01:56:25.976Z,6.13
2023-03-31T01:56:38.476Z,6.14
2023-03-31T01:56:51.049Z,6.14
2023-03-31T01:57:03.547Z,6.14
2023-03-31T01:57:14.230Z,6.14
2023-03-31T01:57:25.046Z,6.16
2023-03-31T01:57:37.465Z,6.16
2023-03-31T01:57:49.158Z,6.14
2023-03-31T01:58:01.333Z,6.14
2023-03-31T01:58:13.720Z,6.13
2023-03-31T01:58:24.461Z,6.14
2023-03-31T01:58:36.110Z,6.14
2023-03-31T01:58:47.801Z,6.14
2023-03-31T01:58:59.483Z,6.13
2023-03-31T01:59:10.259Z,6.14
2023-03-31T01:59:21.949Z,6.13
2023-03-31T01:59:33.680Z,6.13
2023-03-31T01:59:46.887Z,6.13
2023-03-31T01:59:57.557Z,6.14
2023-03-31T02:00:08.252Z,6.14
2023-03-31T02:00:21.970Z,6.13
2023-03-31T02:00:34.669Z,6.13
2023-03-31T02:00:47.856Z,6.11
2023-03-31T02:00:58.624Z,6.13
2023-03-31T02:01:10.823Z,6.11
2023-03-31T02:01:21.614Z,6.11
2023-03-31T02:01:34.991Z,6.13
2023-03-31T02:01:47.594Z,6.13
2023-03-31T02:02:00.031Z,6.11
2023-03-31T02:02:10.836Z,6.11
2023-03-31T02:02:21.586Z,6.11
2023-03-31T02:02:35.301Z,6.13
2023-03-31T02:02:47.112Z,6.11
2023-03-31T02:02:58.041Z,6.13
2023-03-31T02:03:08.871Z,6.10
2023-03-31T02:03:19.745Z,6.11
2023-03-31T02:03:32.019Z,6.11
2023-03-31T02:03:44.172Z,6.11
2023-03-31T02:03:54.982Z,6.10
2023-03-31T02:04:05.681Z,6.11
2023-03-31T02:04:16.368Z,6.11
2023-03-31T02:04:29.273Z,6.11
2023-03-31T02:04:40.014Z,6.10
2023-03-31T02:04:52.434Z,6.10
2023-03-31T02:05:03.176Z,6.08
2023-03-31T02:05:13.900Z,6.10
2023-03-31T02:05:25.603Z,6.10
2023-03-31T02:05:36.350Z,6.08
2023-03-31T02:05:48.019Z,6.08
2023-03-31T02:05:59.968Z,6.06
2023-03-31T02:06:10.687Z,6.08
2023-03-31T02:06:21.459Z,6.05
2023-03-31T02:06:33.659Z,6.08
2023-03-31T02:06:44.420Z,6.06
2023-03-31T02:06:55.129Z,6.08
2023-03-31T02:07:06.820Z,6.06
2023-03-31T02:07:19.039Z,6.06
2023-03-31T02:07:29.806Z,6.06
2023-03-31T02:07:41.465Z,6.06
2023-03-31T02:07:52.150Z,6.06
2023-03-31T02:08:02.889Z,6.05
2023-03-31T02:08:14.558Z,6.05
2023-03-31T02:08:26.981Z,6.05
2023-03-31T02:08:40.182Z,6.06
2023-03-31T02:08:50.908Z,6.06
2023-03-31T02:09:01.640Z,6.03
2023-03-31T02:09:12.330Z,6.05
2023-03-31T02:09:23.059Z,6.06
2023-03-31T02:09:33.730Z,6.06
2023-03-31T02:09:44.420Z,6.06
2023-03-31T02:09:56.819Z,6.06
2023-03-31T02:10:09.356Z,6.06
2023-03-31T02:10:22.012Z,6.06
2023-03-31T02:10:34.694Z,6.06
2023-03-31T02:10:47.125Z,6.06
2023-03-31T02:10:59.542Z,6.08
2023-03-31T02:11:11.169Z,6.10
2023-03-31T02:11:21.882Z,6.08
2023-03-31T02:11:35.109Z,6.08
2023-03-31T02:11:46.794Z,6.08
2023-03-31T02:11:57.495Z,6.08
2023-03-31T02:12:09.208Z,6.08
2023-03-31T02:12:20.691Z,6.10
2023-03-31T02:12:32.384Z,6.10
2023-03-31T02:12:43.186Z,6.10
2023-03-31T02:12:53.908Z,6.10
2023-03-31T02:13:04.603Z,6.10
2023-03-31T02:13:16.267Z,6.11
2023-03-31T02:13:27.011Z,6.10
2023-03-31T02:13:37.714Z,6.11
2023-03-31T02:13:48.497Z,6.11
2023-03-31T02:13:59.178Z,6.11
2023-03-31T02:14:09.903Z,6.11
2023-03-31T02:14:22.357Z,6.10
2023-03-31T02:14:33.079Z,6.11
2023-03-31T02:14:43.799Z,6.11
2023-03-31T02:14:54.481Z,6.11
2023-03-31T02:15:07.151Z,6.13
2023-03-31T02:15:19.591Z,6.13
2023-03-31T02:15:30.269Z,6.13
2023-03-31T02:15:41.005Z,6.14
2023-03-31T02:15:53.536Z,6.14
2023-03-31T02:16:07.640Z,6.14
2023-03-31T02:16:20.642Z,6.17
2023-03-31T02:16:32.812Z,6.17
2023-03-31T02:16:43.551Z,6.19
2023-03-31T02:16:55.257Z,6.17
2023-03-31T02:17:06.915Z,6.19
2023-03-31T02:17:18.585Z,6.19
2023-03-31T02:17:30.740Z,6.20
2023-03-31T02:17:41.564Z,6.19
2023-03-31T02:17:53.319Z,6.19
2023-03-31T02:18:05.115Z,6.20
2023-03-31T02:18:19.390Z,6.19
2023-03-31T02:18:30.124Z,6.19
2023-03-31T02:18:41.816Z,6.19
2023-03-31T02:18:52.569Z,6.19
2023-03-31T02:19:03.223Z,6.19
2023-03-31T02:19:14.960Z,6.19
2023-03-31T02:19:25.646Z,6.19
2023-03-31T02:19:36.344Z,6.19
2023-03-31T02:19:49.481Z,6.20
2023-03-31T02:20:01.847Z,6.19
2023-03-31T02:20:13.542Z,6.20
2023-03-31T02:20:25.735Z,6.20
2023-03-31T02:20:38.645Z,6.20
2023-03-31T02:20:49.367Z,6.19
2023-03-31T02:21:01.566Z,6.20
2023-03-31T02:21:13.973Z,6.20
2023-03-31T02:21:26.393Z,6.21
2023-03-31T02:21:38.077Z,6.20
2023-03-31T02:21:49.835Z,6.20
2023-03-31T02:22:00.509Z,6.20
2023-03-31T02:22:11.202Z,6.21
2023-03-31T02:22:21.962Z,6.20
2023-03-31T02:22:33.634Z,6.19
2023-03-31T02:22:46.110Z,6.21
2023-03-31T02:22:57.859Z,6.20
2023-03-31T02:23:08.558Z,6.19
2023-03-31T02:23:20.337Z,6.20
2023-03-31T02:23:31.033Z,6.20
2023-03-31T02:23:43.450Z,6.21
2023-03-31T02:23:55.147Z,6.21
2023-03-31T02:24:05.841Z,6.21
2023-03-31T02:24:19.038Z,6.21
2023-03-31T02:24:30.776Z,6.24
2023-03-31T02:24:41.504Z,6.25
2023-03-31T02:24:55.194Z,6.25
2023-03-31T02:25:05.904Z,6.25
2023-03-31T02:25:16.585Z,6.27
2023-03-31T02:25:27.373Z,6.28
2023-03-31T02:25:40.533Z,6.27
2023-03-31T02:25:52.193Z,6.30
2023-03-31T02:26:02.978Z,6.32
2023-03-31T02:26:15.700Z,6.33
2023-03-31T02:26:27.365Z,6.38
2023-03-31T02:26:38.065Z,6.38
2023-03-31T02:26:49.774Z,6.38
2023-03-31T02:27:00.519Z,6.40
2023-03-31T02:27:12.175Z,6.43
2023-03-31T02:27:24.573Z,6.43
2023-03-31T02:27:36.247Z,6.45
2023-03-31T02:27:48.713Z,6.45
2023-03-31T02:27:59.468Z,6.48
2023-03-31T02:28:11.159Z,6.48
2023-03-31T02:28:23.460Z,6.50
2023-03-31T02:28:34.179Z,6.50
2023-03-31T02:28:44.894Z,6.50
2023-03-31T02:28:56.626Z,6.51
2023-03-31T02:29:08.980Z,6.51
2023-03-31T02:29:20.643Z,6.54
2023-03-31T02:29:31.349Z,6.54
2023-03-31T02:29:43.775Z,6.55
2023-03-31T02:29:54.494Z,6.55
2023-03-31T02:30:06.158Z,6.58
2023-03-31T02:30:16.895Z,6.61
2023-03-31T02:30:29.311Z,6.63
2023-03-31T02:30:42.230Z,6.65
2023-03-31T02:30:53.004Z,6.65
2023-03-31T02:31:03.675Z,6.69
2023-03-31T02:31:14.491Z,6.69
2023-03-31T02:31:26.933Z,6.71
2023-03-31T02:31:39.431Z,6.72
2023-03-31T02:31:50.229Z,6.71
2023-03-31T02:32:02.520Z,6.72
2023-03-31T02:32:13.291Z,6.73
2023-03-31T02:32:24.047Z,6.73
2023-03-31T02:32:35.749Z,6.75
2023-03-31T02:32:47.975Z,6.76
2023-03-31T02:33:00.572Z,6.76
2023-03-31T02:33:11.305Z,6.76
2023-03-31T02:33:21.988Z,6.78
2023-03-31T02:33:32.771Z,6.78
2023-03-31T02:33:44.487Z,6.79